sensor_id;sensor_type;location;lat;lon;timestamp;P1;durP1;ratioP1;P2;durP2;ratioP2
29206;SDS011;16247;50.840;4.382;2022-09-01T00:00:45;20.85;;;18.30;;
29206;SDS011;16247;50.840;4.382;2022-09-01T00:03:18;28.25;;;25.25;;
29206;SDS011;16247;50.840;4.382;2022-09-01T00:05:47;35.22;;;30.67;;
29206;SDS011;16247;50.840;4.382;2022-09-01T00:08:15;30.42;;;25.08;;
29206;SDS011;16247;50.840;4.382;2022-09-01T00:10:40;26.48;;;19.33;;
29206;SDS011;16247;50.840;4.382;2022-09-01T00:13:06;20.48;;;15.50;;
29206;SDS011;16247;50.840;4.382;2022-09-01T00:15:33;16.95;;;12.32;;
29206;SDS011;16247;50.840;4.382;2022-09-01T00:18:06;9.87;;;8.53;;
29206;SDS011;16247;50.840;4.382;2022-09-01T00:20:31;12.75;;;8.60;;
29206;SDS011;16247;50.840;4.382;2022-09-01T00:23:04;10.10;;;7.20;;
29206;SDS011;16247;50.840;4.382;2022-09-01T00:25:41;9.27;;;5.43;;
29206;SDS011;16247;50.840;4.382;2022-09-01T00:30:36;10.13;;;5.43;;
29206;SDS011;16247;50.840;4.382;2022-09-01T00:35:34;11.02;;;5.00;;
29206;SDS011;16247;50.840;4.382;2022-09-01T00:37:59;8.63;;;5.72;;
29206;SDS011;16247;50.840;4.382;2022-09-01T00:40:25;11.02;;;5.15;;
29206;SDS011;16247;50.840;4.382;2022-09-01T00:42:51;11.52;;;5.13;;
29206;SDS011;16247;50.840;4.382;2022-09-01T00:45:18;6.45;;;4.53;;
29206;SDS011;16247;50.840;4.382;2022-09-01T00:47:45;10.07;;;4.90;;
29206;SDS011;16247;50.840;4.382;2022-09-01T00:50:12;7.05;;;4.13;;
29206;SDS011;16247;50.840;4.382;2022-09-01T00:52:48;8.30;;;4.82;;
29206;SDS011;16247;50.840;4.382;2022-09-01T00:55:22;7.18;;;4.32;;
29206;SDS011;16247;50.840;4.382;2022-09-01T00:57:51;9.77;;;4.80;;
29206;SDS011;16247;50.840;4.382;2022-09-01T01:00:25;10.93;;;5.57;;
29206;SDS011;16247;50.840;4.382;2022-09-01T01:02:52;6.50;;;4.38;;
29206;SDS011;16247;50.840;4.382;2022-09-01T01:05:21;10.32;;;4.85;;
29206;SDS011;16247;50.840;4.382;2022-09-01T01:07:52;10.23;;;4.65;;
29206;SDS011;16247;50.840;4.382;2022-09-01T01:10:19;7.53;;;4.68;;
29206;SDS011;16247;50.840;4.382;2022-09-01T01:12:46;7.90;;;4.70;;
29206;SDS011;16247;50.840;4.382;2022-09-01T01:15:13;12.02;;;4.88;;
29206;SDS011;16247;50.840;4.382;2022-09-01T01:17:41;8.00;;;5.82;;
29206;SDS011;16247;50.840;4.382;2022-09-01T01:20:07;10.25;;;4.90;;
29206;SDS011;16247;50.840;4.382;2022-09-01T01:28:19;8.98;;;5.18;;
29206;SDS011;16247;50.840;4.382;2022-09-01T01:30:55;6.35;;;4.30;;
29206;SDS011;16247;50.840;4.382;2022-09-01T01:33:44;12.13;;;5.55;;
29206;SDS011;16247;50.840;4.382;2022-09-01T01:36:26;12.18;;;5.68;;
29206;SDS011;16247;50.840;4.382;2022-09-01T01:39:06;13.65;;;5.82;;
29206;SDS011;16247;50.840;4.382;2022-09-01T01:41:35;12.27;;;6.22;;
29206;SDS011;16247;50.840;4.382;2022-09-01T01:44:05;13.15;;;5.63;;
29206;SDS011;16247;50.840;4.382;2022-09-01T01:46:39;8.70;;;4.47;;
29206;SDS011;16247;50.840;4.382;2022-09-01T01:49:10;9.73;;;5.30;;
29206;SDS011;16247;50.840;4.382;2022-09-01T01:51:38;10.30;;;4.70;;
29206;SDS011;16247;50.840;4.382;2022-09-01T01:54:12;11.70;;;5.25;;
29206;SDS011;16247;50.840;4.382;2022-09-01T01:56:38;12.48;;;5.25;;
29206;SDS011;16247;50.840;4.382;2022-09-01T01:59:06;11.35;;;5.22;;
29206;SDS011;16247;50.840;4.382;2022-09-01T02:01:41;9.00;;;5.38;;
29206;SDS011;16247;50.840;4.382;2022-09-01T02:04:15;9.52;;;5.88;;
29206;SDS011;16247;50.840;4.382;2022-09-01T02:06:43;12.80;;;5.93;;
29206;SDS011;16247;50.840;4.382;2022-09-01T02:09:10;11.43;;;5.18;;
29206;SDS011;16247;50.840;4.382;2022-09-01T02:11:37;11.23;;;5.20;;
29206;SDS011;16247;50.840;4.382;2022-09-01T02:14:04;12.30;;;5.28;;
29206;SDS011;16247;50.840;4.382;2022-09-01T02:16:31;9.13;;;4.97;;
29206;SDS011;16247;50.840;4.382;2022-09-01T02:18:58;11.95;;;5.60;;
29206;SDS011;16247;50.840;4.382;2022-09-01T02:21:27;10.82;;;5.28;;
29206;SDS011;16247;50.840;4.382;2022-09-01T02:24:03;8.95;;;4.38;;
29206;SDS011;16247;50.840;4.382;2022-09-01T02:26:34;9.80;;;5.20;;
29206;SDS011;16247;50.840;4.382;2022-09-01T02:29:05;13.70;;;6.50;;
29206;SDS011;16247;50.840;4.382;2022-09-01T02:31:35;10.13;;;5.28;;
29206;SDS011;16247;50.840;4.382;2022-09-01T02:34:04;10.27;;;6.28;;
29206;SDS011;16247;50.840;4.382;2022-09-01T02:36:34;11.07;;;4.95;;
29206;SDS011;16247;50.840;4.382;2022-09-01T02:39:05;13.82;;;5.55;;
29206;SDS011;16247;50.840;4.382;2022-09-01T02:41:31;10.55;;;5.85;;
29206;SDS011;16247;50.840;4.382;2022-09-01T02:43:58;14.13;;;5.85;;
29206;SDS011;16247;50.840;4.382;2022-09-01T02:46:28;8.13;;;4.88;;
29206;SDS011;16247;50.840;4.382;2022-09-01T02:48:54;12.32;;;5.15;;
29206;SDS011;16247;50.840;4.382;2022-09-01T02:51:33;13.05;;;6.20;;
29206;SDS011;16247;50.840;4.382;2022-09-01T02:59:27;10.60;;;5.55;;
29206;SDS011;16247;50.840;4.382;2022-09-01T03:02:02;12.23;;;5.72;;
29206;SDS011;16247;50.840;4.382;2022-09-01T03:04:28;10.43;;;6.45;;
29206;SDS011;16247;50.840;4.382;2022-09-01T03:06:57;11.65;;;5.63;;
29206;SDS011;16247;50.840;4.382;2022-09-01T03:09:23;12.65;;;5.78;;
29206;SDS011;16247;50.840;4.382;2022-09-01T03:11:51;9.82;;;5.45;;
29206;SDS011;16247;50.840;4.382;2022-09-01T03:14:18;12.32;;;6.00;;
29206;SDS011;16247;50.840;4.382;2022-09-01T03:16:44;9.52;;;6.45;;
29206;SDS011;16247;50.840;4.382;2022-09-01T03:19:11;13.15;;;5.72;;
29206;SDS011;16247;50.840;4.382;2022-09-01T03:21:40;12.00;;;6.20;;
29206;SDS011;16247;50.840;4.382;2022-09-01T03:24:08;11.43;;;5.80;;
29206;SDS011;16247;50.840;4.382;2022-09-01T03:26:36;11.18;;;5.78;;
29206;SDS011;16247;50.840;4.382;2022-09-01T03:29:02;11.85;;;5.57;;
29206;SDS011;16247;50.840;4.382;2022-09-01T03:31:29;14.68;;;8.68;;
29206;SDS011;16247;50.840;4.382;2022-09-01T03:33:56;10.18;;;6.07;;
29206;SDS011;16247;50.840;4.382;2022-09-01T03:36:25;11.20;;;5.75;;
29206;SDS011;16247;50.840;4.382;2022-09-01T03:38:52;11.80;;;6.22;;
29206;SDS011;16247;50.840;4.382;2022-09-01T03:41:20;11.25;;;5.05;;
29206;SDS011;16247;50.840;4.382;2022-09-01T03:43:50;11.65;;;5.60;;
29206;SDS011;16247;50.840;4.382;2022-09-01T03:46:21;12.52;;;6.20;;
29206;SDS011;16247;50.840;4.382;2022-09-01T03:48:48;11.05;;;5.38;;
29206;SDS011;16247;50.840;4.382;2022-09-01T03:51:16;14.20;;;6.05;;
29206;SDS011;16247;50.840;4.382;2022-09-01T03:53:43;15.73;;;5.40;;
29206;SDS011;16247;50.840;4.382;2022-09-01T03:56:10;8.63;;;5.28;;
29206;SDS011;16247;50.840;4.382;2022-09-01T03:58:44;10.82;;;5.95;;
29206;SDS011;16247;50.840;4.382;2022-09-01T04:09:59;12.70;;;6.43;;
29206;SDS011;16247;50.840;4.382;2022-09-01T04:12:24;17.63;;;7.18;;
29206;SDS011;16247;50.840;4.382;2022-09-01T04:14:53;11.05;;;6.60;;
29206;SDS011;16247;50.840;4.382;2022-09-01T04:17:21;13.38;;;6.25;;
29206;SDS011;16247;50.840;4.382;2022-09-01T04:20:11;13.57;;;6.45;;
29206;SDS011;16247;50.840;4.382;2022-09-01T04:32:28;18.23;;;6.55;;
29206;SDS011;16247;50.840;4.382;2022-09-01T04:40:09;14.00;;;6.68;;
29206;SDS011;16247;50.840;4.382;2022-09-01T04:45:25;14.32;;;5.88;;
29206;SDS011;16247;50.840;4.382;2022-09-01T04:47:57;21.65;;;7.03;;
29206;SDS011;16247;50.840;4.382;2022-09-01T04:53:10;16.60;;;6.78;;
29206;SDS011;16247;50.840;4.382;2022-09-01T04:55:40;11.07;;;6.30;;
29206;SDS011;16247;50.840;4.382;2022-09-01T04:58:36;18.77;;;6.85;;
29206;SDS011;16247;50.840;4.382;2022-09-01T05:01:14;13.68;;;6.95;;
29206;SDS011;16247;50.840;4.382;2022-09-01T05:03:42;10.13;;;6.00;;
29206;SDS011;16247;50.840;4.382;2022-09-01T05:06:17;15.40;;;6.93;;
29206;SDS011;16247;50.840;4.382;2022-09-01T05:08:44;17.55;;;7.05;;
29206;SDS011;16247;50.840;4.382;2022-09-01T05:15:22;11.13;;;7.05;;
29206;SDS011;16247;50.840;4.382;2022-09-01T05:18:11;13.43;;;6.90;;
29206;SDS011;16247;50.840;4.382;2022-09-01T05:20:38;15.65;;;6.72;;
29206;SDS011;16247;50.840;4.382;2022-09-01T05:25:50;13.88;;;7.57;;
29206;SDS011;16247;50.840;4.382;2022-09-01T05:28:34;15.32;;;6.82;;
29206;SDS011;16247;50.840;4.382;2022-09-01T05:31:36;11.85;;;6.40;;
29206;SDS011;16247;50.840;4.382;2022-09-01T05:34:10;14.45;;;8.05;;
29206;SDS011;16247;50.840;4.382;2022-09-01T05:36:41;14.70;;;6.93;;
29206;SDS011;16247;50.840;4.382;2022-09-01T05:39:09;18.30;;;6.60;;
29206;SDS011;16247;50.840;4.382;2022-09-01T05:41:36;14.50;;;6.33;;
29206;SDS011;16247;50.840;4.382;2022-09-01T05:44:05;15.35;;;7.00;;
29206;SDS011;16247;50.840;4.382;2022-09-01T05:46:32;23.75;;;6.63;;
29206;SDS011;16247;50.840;4.382;2022-09-01T05:49:00;9.73;;;6.47;;
29206;SDS011;16247;50.840;4.382;2022-09-01T05:51:27;18.30;;;7.25;;
29206;SDS011;16247;50.840;4.382;2022-09-01T05:53:54;18.45;;;8.18;;
29206;SDS011;16247;50.840;4.382;2022-09-01T05:56:24;11.70;;;6.63;;
29206;SDS011;16247;50.840;4.382;2022-09-01T05:58:51;14.95;;;6.90;;
29206;SDS011;16247;50.840;4.382;2022-09-01T06:01:19;13.82;;;6.82;;
29206;SDS011;16247;50.840;4.382;2022-09-01T06:03:52;21.60;;;8.15;;
29206;SDS011;16247;50.840;4.382;2022-09-01T06:06:23;15.23;;;6.57;;
29206;SDS011;16247;50.840;4.382;2022-09-01T06:08:51;14.27;;;6.32;;
29206;SDS011;16247;50.840;4.382;2022-09-01T06:11:23;18.35;;;6.32;;
29206;SDS011;16247;50.840;4.382;2022-09-01T06:13:50;13.25;;;6.78;;
29206;SDS011;16247;50.840;4.382;2022-09-01T06:16:21;11.88;;;7.28;;
29206;SDS011;16247;50.840;4.382;2022-09-01T06:18:48;10.57;;;5.93;;
29206;SDS011;16247;50.840;4.382;2022-09-01T06:21:17;14.55;;;6.00;;
29206;SDS011;16247;50.840;4.382;2022-09-01T06:23:44;11.68;;;5.38;;
29206;SDS011;16247;50.840;4.382;2022-09-01T06:26:19;9.77;;;5.90;;
29206;SDS011;16247;50.840;4.382;2022-09-01T06:28:55;11.55;;;5.53;;
29206;SDS011;16247;50.840;4.382;2022-09-01T06:31:23;16.60;;;6.22;;
29206;SDS011;16247;50.840;4.382;2022-09-01T06:33:52;21.02;;;6.13;;
29206;SDS011;16247;50.840;4.382;2022-09-01T06:36:19;15.35;;;7.30;;
29206;SDS011;16247;50.840;4.382;2022-09-01T06:38:49;13.48;;;6.38;;
29206;SDS011;16247;50.840;4.382;2022-09-01T06:41:15;16.17;;;6.32;;
29206;SDS011;16247;50.840;4.382;2022-09-01T06:43:44;15.60;;;7.25;;
29206;SDS011;16247;50.840;4.382;2022-09-01T06:46:19;18.30;;;8.52;;
29206;SDS011;16247;50.840;4.382;2022-09-01T06:48:46;11.07;;;6.40;;
29206;SDS011;16247;50.840;4.382;2022-09-01T06:51:15;15.38;;;5.95;;
29206;SDS011;16247;50.840;4.382;2022-09-01T06:53:45;9.73;;;5.55;;
29206;SDS011;16247;50.840;4.382;2022-09-01T06:56:20;14.27;;;6.25;;
29206;SDS011;16247;50.840;4.382;2022-09-01T06:58:50;10.63;;;6.60;;
29206;SDS011;16247;50.840;4.382;2022-09-01T07:01:35;10.75;;;6.00;;
29206;SDS011;16247;50.840;4.382;2022-09-01T07:04:10;10.93;;;5.70;;
29206;SDS011;16247;50.840;4.382;2022-09-01T07:06:38;15.88;;;5.95;;
29206;SDS011;16247;50.840;4.382;2022-09-01T07:09:04;14.98;;;6.38;;
29206;SDS011;16247;50.840;4.382;2022-09-01T07:11:32;11.88;;;5.53;;
29206;SDS011;16247;50.840;4.382;2022-09-01T07:14:03;11.38;;;5.95;;
29206;SDS011;16247;50.840;4.382;2022-09-01T07:16:32;10.07;;;5.00;;
29206;SDS011;16247;50.840;4.382;2022-09-01T07:19:06;11.20;;;5.53;;
29206;SDS011;16247;50.840;4.382;2022-09-01T07:21:43;8.02;;;5.70;;
29206;SDS011;16247;50.840;4.382;2022-09-01T07:24:10;10.75;;;5.93;;
29206;SDS011;16247;50.840;4.382;2022-09-01T07:26:39;10.98;;;5.20;;
29206;SDS011;16247;50.840;4.382;2022-09-01T07:29:06;11.50;;;5.47;;
29206;SDS011;16247;50.840;4.382;2022-09-01T07:31:37;14.07;;;5.63;;
29206;SDS011;16247;50.840;4.382;2022-09-01T07:34:19;19.15;;;5.95;;
29206;SDS011;16247;50.840;4.382;2022-09-01T07:36:46;9.73;;;5.97;;
29206;SDS011;16247;50.840;4.382;2022-09-01T07:39:14;11.25;;;5.80;;
29206;SDS011;16247;50.840;4.382;2022-09-01T07:41:40;11.43;;;5.85;;
29206;SDS011;16247;50.840;4.382;2022-09-01T07:50:33;10.35;;;5.65;;
29206;SDS011;16247;50.840;4.382;2022-09-01T07:53:01;11.20;;;5.55;;
29206;SDS011;16247;50.840;4.382;2022-09-01T07:55:28;11.00;;;5.50;;
29206;SDS011;16247;50.840;4.382;2022-09-01T07:57:54;11.82;;;4.68;;
29206;SDS011;16247;50.840;4.382;2022-09-01T08:00:22;8.93;;;4.85;;
29206;SDS011;16247;50.840;4.382;2022-09-01T08:02:52;10.38;;;4.68;;
29206;SDS011;16247;50.840;4.382;2022-09-01T08:05:18;6.47;;;4.28;;
29206;SDS011;16247;50.840;4.382;2022-09-01T08:08:03;8.15;;;4.75;;
29206;SDS011;16247;50.840;4.382;2022-09-01T08:10:30;7.57;;;4.40;;
29206;SDS011;16247;50.840;4.382;2022-09-01T08:12:57;10.63;;;4.33;;
29206;SDS011;16247;50.840;4.382;2022-09-01T08:15:24;5.90;;;4.20;;
29206;SDS011;16247;50.840;4.382;2022-09-01T08:17:51;11.82;;;4.38;;
29206;SDS011;16247;50.840;4.382;2022-09-01T08:20:17;8.48;;;4.45;;
29206;SDS011;16247;50.840;4.382;2022-09-01T08:22:43;8.60;;;4.80;;
29206;SDS011;16247;50.840;4.382;2022-09-01T08:25:10;10.05;;;4.50;;
29206;SDS011;16247;50.840;4.382;2022-09-01T08:27:37;8.55;;;4.40;;
29206;SDS011;16247;50.840;4.382;2022-09-01T08:30:07;9.40;;;4.00;;
29206;SDS011;16247;50.840;4.382;2022-09-01T08:32:37;13.13;;;4.85;;
29206;SDS011;16247;50.840;4.382;2022-09-01T08:35:08;11.75;;;3.72;;
29206;SDS011;16247;50.840;4.382;2022-09-01T08:37:37;15.23;;;4.40;;
29206;SDS011;16247;50.840;4.382;2022-09-01T08:40:05;8.63;;;3.65;;
29206;SDS011;16247;50.840;4.382;2022-09-01T08:45:38;9.60;;;3.78;;
29206;SDS011;16247;50.840;4.382;2022-09-01T08:48:21;16.52;;;4.38;;
29206;SDS011;16247;50.840;4.382;2022-09-01T08:53:44;4.25;;;2.67;;
29206;SDS011;16247;50.840;4.382;2022-09-01T08:56:19;7.07;;;3.38;;
29206;SDS011;16247;50.840;4.382;2022-09-01T08:58:46;6.03;;;3.78;;
29206;SDS011;16247;50.840;4.382;2022-09-01T09:01:22;8.68;;;2.88;;
29206;SDS011;16247;50.840;4.382;2022-09-01T09:10:31;7.60;;;3.08;;
29206;SDS011;16247;50.840;4.382;2022-09-01T09:15:32;10.57;;;3.80;;
29206;SDS011;16247;50.840;4.382;2022-09-01T09:18:25;5.93;;;3.10;;
29206;SDS011;16247;50.840;4.382;2022-09-01T09:21:24;9.95;;;3.30;;
29206;SDS011;16247;50.840;4.382;2022-09-01T09:26:38;8.13;;;3.10;;
29206;SDS011;16247;50.840;4.382;2022-09-01T09:29:22;5.25;;;3.65;;
29206;SDS011;16247;50.840;4.382;2022-09-01T09:32:00;5.80;;;2.85;;
29206;SDS011;16247;50.840;4.382;2022-09-01T09:34:49;4.82;;;3.22;;
29206;SDS011;16247;50.840;4.382;2022-09-01T09:40:07;6.05;;;3.17;;
29206;SDS011;16247;50.840;4.382;2022-09-01T09:43:04;6.38;;;2.97;;
29206;SDS011;16247;50.840;4.382;2022-09-01T09:45:31;4.60;;;3.53;;
29206;SDS011;16247;50.840;4.382;2022-09-01T09:47:59;7.15;;;2.70;;
29206;SDS011;16247;50.840;4.382;2022-09-01T09:50:40;7.93;;;3.33;;
29206;SDS011;16247;50.840;4.382;2022-09-01T09:56:00;6.20;;;2.85;;
29206;SDS011;16247;50.840;4.382;2022-09-01T09:58:36;9.68;;;3.50;;
29206;SDS011;16247;50.840;4.382;2022-09-01T10:01:11;6.00;;;2.30;;
29206;SDS011;16247;50.840;4.382;2022-09-01T10:03:50;7.13;;;4.22;;
29206;SDS011;16247;50.840;4.382;2022-09-01T10:09:16;3.78;;;1.88;;
29206;SDS011;16247;50.840;4.382;2022-09-01T10:11:50;3.15;;;1.85;;
29206;SDS011;16247;50.840;4.382;2022-09-01T10:14:27;4.00;;;2.00;;
29206;SDS011;16247;50.840;4.382;2022-09-01T10:17:10;6.97;;;2.28;;
29206;SDS011;16247;50.840;4.382;2022-09-01T10:19:44;8.05;;;2.63;;
29206;SDS011;16247;50.840;4.382;2022-09-01T10:22:25;3.17;;;1.95;;
29206;SDS011;16247;50.840;4.382;2022-09-01T10:27:37;5.95;;;1.95;;
29206;SDS011;16247;50.840;4.382;2022-09-01T10:32:56;3.35;;;1.83;;
29206;SDS011;16247;50.840;4.382;2022-09-01T10:35:33;3.45;;;2.03;;
29206;SDS011;16247;50.840;4.382;2022-09-01T10:38:15;2.15;;;1.73;;
29206;SDS011;16247;50.840;4.382;2022-09-01T10:40:48;8.20;;;2.40;;
29206;SDS011;16247;50.840;4.382;2022-09-01T10:43:43;2.97;;;1.60;;
29206;SDS011;16247;50.840;4.382;2022-09-01T10:48:56;4.03;;;2.33;;
29206;SDS011;16247;50.840;4.382;2022-09-01T10:54:05;2.00;;;1.80;;
29206;SDS011;16247;50.840;4.382;2022-09-01T10:56:45;6.93;;;2.17;;
29206;SDS011;16247;50.840;4.382;2022-09-01T11:07:05;3.25;;;2.45;;
29206;SDS011;16247;50.840;4.382;2022-09-01T11:13:23;11.98;;;2.85;;
29206;SDS011;16247;50.840;4.382;2022-09-01T11:30:34;6.25;;;1.90;;
29206;SDS011;16247;50.840;4.382;2022-09-01T11:33:37;5.93;;;1.73;;
29206;SDS011;16247;50.840;4.382;2022-09-01T11:39:38;6.55;;;2.78;;
29206;SDS011;16247;50.840;4.382;2022-09-01T11:48:08;3.15;;;2.10;;
29206;SDS011;16247;50.840;4.382;2022-09-01T11:50:55;4.93;;;1.92;;
29206;SDS011;16247;50.840;4.382;2022-09-01T11:53:41;6.00;;;2.30;;
29206;SDS011;16247;50.840;4.382;2022-09-01T11:56:13;3.72;;;2.03;;
29206;SDS011;16247;50.840;4.382;2022-09-01T11:58:46;6.10;;;2.25;;
29206;SDS011;16247;50.840;4.382;2022-09-01T12:03:56;8.57;;;2.05;;
29206;SDS011;16247;50.840;4.382;2022-09-01T12:06:49;4.60;;;2.10;;
29206;SDS011;16247;50.840;4.382;2022-09-01T12:09:44;3.42;;;1.88;;
29206;SDS011;16247;50.840;4.382;2022-09-01T12:12:36;5.88;;;2.28;;
29206;SDS011;16247;50.840;4.382;2022-09-01T12:15:09;4.57;;;2.38;;
29206;SDS011;16247;50.840;4.382;2022-09-01T12:17:49;12.32;;;2.25;;
29206;SDS011;16247;50.840;4.382;2022-09-01T12:20:26;10.98;;;2.92;;
29206;SDS011;16247;50.840;4.382;2022-09-01T12:22:59;6.13;;;2.17;;
29206;SDS011;16247;50.840;4.382;2022-09-01T12:27:58;6.60;;;2.40;;
29206;SDS011;16247;50.840;4.382;2022-09-01T12:30:25;7.72;;;2.28;;
29206;SDS011;16247;50.840;4.382;2022-09-01T12:32:52;3.97;;;2.63;;
29206;SDS011;16247;50.840;4.382;2022-09-01T12:35:21;3.15;;;2.10;;
29206;SDS011;16247;50.840;4.382;2022-09-01T12:40:51;3.70;;;1.80;;
29206;SDS011;16247;50.840;4.382;2022-09-01T12:43:29;3.15;;;2.03;;
29206;SDS011;16247;50.840;4.382;2022-09-01T12:45:57;2.13;;;1.90;;
29206;SDS011;16247;50.840;4.382;2022-09-01T12:51:42;27.20;;;2.70;;
29206;SDS011;16247;50.840;4.382;2022-09-01T12:54:13;2.88;;;1.83;;
29206;SDS011;16247;50.840;4.382;2022-09-01T12:56:47;5.33;;;2.20;;
29206;SDS011;16247;50.840;4.382;2022-09-01T12:59:23;6.05;;;2.33;;
29206;SDS011;16247;50.840;4.382;2022-09-01T13:05:16;5.05;;;2.30;;
29206;SDS011;16247;50.840;4.382;2022-09-01T13:08:09;4.75;;;1.77;;
29206;SDS011;16247;50.840;4.382;2022-09-01T13:13:37;6.47;;;2.28;;
29206;SDS011;16247;50.840;4.382;2022-09-01T13:16:10;6.38;;;2.42;;
29206;SDS011;16247;50.840;4.382;2022-09-01T13:18:37;5.78;;;1.77;;
29206;SDS011;16247;50.840;4.382;2022-09-01T13:21:07;4.28;;;1.77;;
29206;SDS011;16247;50.840;4.382;2022-09-01T13:23:49;9.18;;;1.90;;
29206;SDS011;16247;50.840;4.382;2022-09-01T13:29:23;5.40;;;2.28;;
29206;SDS011;16247;50.840;4.382;2022-09-01T13:31:49;4.63;;;1.85;;
29206;SDS011;16247;50.840;4.382;2022-09-01T13:34:15;6.47;;;2.38;;
29206;SDS011;16247;50.840;4.382;2022-09-01T13:36:42;8.38;;;2.13;;
29206;SDS011;16247;50.840;4.382;2022-09-01T13:39:08;4.80;;;1.98;;
29206;SDS011;16247;50.840;4.382;2022-09-01T13:41:34;3.97;;;2.08;;
29206;SDS011;16247;50.840;4.382;2022-09-01T13:44:00;3.15;;;1.80;;
29206;SDS011;16247;50.840;4.382;2022-09-01T13:46:25;3.10;;;1.60;;
29206;SDS011;16247;50.840;4.382;2022-09-01T13:48:52;3.92;;;2.05;;
29206;SDS011;16247;50.840;4.382;2022-09-01T13:51:26;3.60;;;1.65;;
29206;SDS011;16247;50.840;4.382;2022-09-01T13:53:52;3.92;;;2.08;;
29206;SDS011;16247;50.840;4.382;2022-09-01T13:56:20;4.63;;;2.15;;
29206;SDS011;16247;50.840;4.382;2022-09-01T13:58:46;3.45;;;1.50;;
29206;SDS011;16247;50.840;4.382;2022-09-01T14:01:12;6.60;;;2.47;;
29206;SDS011;16247;50.840;4.382;2022-09-01T14:03:39;3.07;;;1.93;;
29206;SDS011;16247;50.840;4.382;2022-09-01T14:06:05;5.03;;;1.73;;
29206;SDS011;16247;50.840;4.382;2022-09-01T14:08:31;2.13;;;1.63;;
29206;SDS011;16247;50.840;4.382;2022-09-01T14:10:58;3.17;;;1.80;;
29206;SDS011;16247;50.840;4.382;2022-09-01T14:13:28;6.97;;;2.15;;
29206;SDS011;16247;50.840;4.382;2022-09-01T14:15:55;5.95;;;2.00;;
29206;SDS011;16247;50.840;4.382;2022-09-01T14:18:24;11.15;;;2.10;;
29206;SDS011;16247;50.840;4.382;2022-09-01T14:23:26;6.45;;;1.98;;
29206;SDS011;16247;50.840;4.382;2022-09-01T14:25:54;4.30;;;1.90;;
29206;SDS011;16247;50.840;4.382;2022-09-01T14:28:26;3.05;;;1.95;;
29206;SDS011;16247;50.840;4.382;2022-09-01T14:31:06;4.88;;;2.15;;
29206;SDS011;16247;50.840;4.382;2022-09-01T14:33:35;2.67;;;1.95;;
29206;SDS011;16247;50.840;4.382;2022-09-01T14:38:35;6.85;;;2.13;;
29206;SDS011;16247;50.840;4.382;2022-09-01T14:51:20;4.43;;;1.50;;
29206;SDS011;16247;50.840;4.382;2022-09-01T14:53:56;3.30;;;1.92;;
29206;SDS011;16247;50.840;4.382;2022-09-01T14:56:25;4.50;;;1.73;;
29206;SDS011;16247;50.840;4.382;2022-09-01T14:58:55;6.30;;;2.38;;
29206;SDS011;16247;50.840;4.382;2022-09-01T15:01:26;2.85;;;1.50;;
29206;SDS011;16247;50.840;4.382;2022-09-01T15:03:52;5.47;;;2.00;;
29206;SDS011;16247;50.840;4.382;2022-09-01T15:06:19;3.63;;;1.52;;
29206;SDS011;16247;50.840;4.382;2022-09-01T15:08:47;2.45;;;1.80;;
29206;SDS011;16247;50.840;4.382;2022-09-01T15:11:15;3.05;;;1.50;;
29206;SDS011;16247;50.840;4.382;2022-09-01T15:13:43;4.03;;;2.67;;
29206;SDS011;16247;50.840;4.382;2022-09-01T15:18:53;6.28;;;1.58;;
29206;SDS011;16247;50.840;4.382;2022-09-01T15:21:31;4.75;;;1.60;;
29206;SDS011;16247;50.840;4.382;2022-09-01T15:23:59;2.03;;;1.63;;
29206;SDS011;16247;50.840;4.382;2022-09-01T15:26:29;4.47;;;1.70;;
29206;SDS011;16247;50.840;4.382;2022-09-01T15:29:19;4.20;;;1.67;;
29206;SDS011;16247;50.840;4.382;2022-09-01T15:31:45;4.07;;;1.40;;
29206;SDS011;16247;50.840;4.382;2022-09-01T15:34:14;4.07;;;1.55;;
29206;SDS011;16247;50.840;4.382;2022-09-01T15:36:42;7.22;;;1.50;;
29206;SDS011;16247;50.840;4.382;2022-09-01T15:39:18;2.42;;;1.50;;
29206;SDS011;16247;50.840;4.382;2022-09-01T15:45:11;6.60;;;1.83;;
29206;SDS011;16247;50.840;4.382;2022-09-01T15:48:04;2.28;;;1.27;;
29206;SDS011;16247;50.840;4.382;2022-09-01T16:41:32;5.45;;;1.80;;
29206;SDS011;16247;50.840;4.382;2022-09-01T16:44:26;3.42;;;1.60;;
29206;SDS011;16247;50.840;4.382;2022-09-01T16:50:19;2.83;;;1.45;;
29206;SDS011;16247;50.840;4.382;2022-09-01T16:56:13;7.15;;;2.03;;
29206;SDS011;16247;50.840;4.382;2022-09-01T17:13:41;3.17;;;1.50;;
29206;SDS011;16247;50.840;4.382;2022-09-01T17:30:20;3.65;;;1.63;;
29206;SDS011;16247;50.840;4.382;2022-09-01T17:32:58;7.82;;;1.85;;
29206;SDS011;16247;50.840;4.382;2022-09-01T17:38:50;6.32;;;3.10;;
29206;SDS011;16247;50.840;4.382;2022-09-01T17:41:46;9.57;;;2.72;;
29206;SDS011;16247;50.840;4.382;2022-09-01T17:50:48;5.85;;;3.83;;
29206;SDS011;16247;50.840;4.382;2022-09-01T17:56:54;3.65;;;1.80;;
29206;SDS011;16247;50.840;4.382;2022-09-01T18:11:04;10.77;;;2.72;;
29206;SDS011;16247;50.840;4.382;2022-09-01T18:19:51;7.93;;;1.35;;
29206;SDS011;16247;50.840;4.382;2022-09-01T18:22:34;3.95;;;2.03;;
29206;SDS011;16247;50.840;4.382;2022-09-01T18:25:08;7.40;;;2.03;;
29206;SDS011;16247;50.840;4.382;2022-09-01T18:27:44;3.13;;;1.70;;
29206;SDS011;16247;50.840;4.382;2022-09-01T18:30:18;8.93;;;2.10;;
29206;SDS011;16247;50.840;4.382;2022-09-01T18:35:33;6.00;;;2.00;;
29206;SDS011;16247;50.840;4.382;2022-09-01T18:38:11;5.05;;;2.17;;
29206;SDS011;16247;50.840;4.382;2022-09-01T18:46:08;3.88;;;2.17;;
29206;SDS011;16247;50.840;4.382;2022-09-01T19:04:39;7.55;;;2.47;;
29206;SDS011;16247;50.840;4.382;2022-09-01T19:07:13;10.55;;;2.97;;
29206;SDS011;16247;50.840;4.382;2022-09-01T19:12:59;22.95;;;3.65;;
29206;SDS011;16247;50.840;4.382;2022-09-01T19:20:59;4.20;;;2.50;;
29206;SDS011;16247;50.840;4.382;2022-09-01T19:23:54;8.30;;;2.63;;
29206;SDS011;16247;50.840;4.382;2022-09-01T19:26:26;9.57;;;2.92;;
29206;SDS011;16247;50.840;4.382;2022-09-01T19:28:56;7.28;;;2.85;;
29206;SDS011;16247;50.840;4.382;2022-09-01T19:31:25;5.22;;;2.33;;
29206;SDS011;16247;50.840;4.382;2022-09-01T19:33:56;9.55;;;3.00;;
29206;SDS011;16247;50.840;4.382;2022-09-01T19:36:27;7.40;;;2.85;;
29206;SDS011;16247;50.840;4.382;2022-09-01T19:39:11;7.25;;;3.05;;
29206;SDS011;16247;50.840;4.382;2022-09-01T19:47:00;5.30;;;2.47;;
29206;SDS011;16247;50.840;4.382;2022-09-01T19:52:22;8.63;;;2.47;;
29206;SDS011;16247;50.840;4.382;2022-09-01T19:57:44;10.00;;;2.70;;
29206;SDS011;16247;50.840;4.382;2022-09-01T20:00:16;6.30;;;2.33;;
29206;SDS011;16247;50.840;4.382;2022-09-01T20:05:36;5.97;;;2.50;;
29206;SDS011;16247;50.840;4.382;2022-09-01T20:08:07;8.63;;;2.53;;
29206;SDS011;16247;50.840;4.382;2022-09-01T20:13:25;9.18;;;2.30;;
29206;SDS011;16247;50.840;4.382;2022-09-01T20:16:40;8.00;;;3.10;;
29206;SDS011;16247;50.840;4.382;2022-09-01T20:30:24;5.28;;;2.28;;
29206;SDS011;16247;50.840;4.382;2022-09-01T20:35:57;4.60;;;2.00;;
29206;SDS011;16247;50.840;4.382;2022-09-01T20:42:11;4.88;;;2.22;;
29206;SDS011;16247;50.840;4.382;2022-09-01T21:18:14;5.47;;;2.15;;
29206;SDS011;16247;50.840;4.382;2022-09-01T21:23:54;10.82;;;3.25;;
29206;SDS011;16247;50.840;4.382;2022-09-01T21:26:37;4.38;;;2.22;;
29206;SDS011;16247;50.840;4.382;2022-09-01T21:32:23;4.57;;;2.20;;
29206;SDS011;16247;50.840;4.382;2022-09-01T21:35:22;7.05;;;2.17;;
29206;SDS011;16247;50.840;4.382;2022-09-01T21:37:54;5.03;;;2.45;;
29206;SDS011;16247;50.840;4.382;2022-09-01T21:40:21;6.22;;;2.45;;
29206;SDS011;16247;50.840;4.382;2022-09-01T21:43:22;10.93;;;2.58;;
29206;SDS011;16247;50.840;4.382;2022-09-01T21:45:59;10.68;;;2.58;;
29206;SDS011;16247;50.840;4.382;2022-09-01T21:48:45;8.75;;;2.25;;